createdAt,value
2022-12-14T00:04:20.434Z,15.33
2022-12-14T00:09:35.436Z,15.38
2022-12-14T00:14:50.431Z,15.39
2022-12-14T00:20:05.431Z,15.42
2022-12-14T00:25:20.453Z,15.41
2022-12-14T00:30:35.514Z,15.43
2022-12-14T00:35:50.784Z,15.43
2022-12-14T00:41:06.423Z,15.46
2022-12-14T00:46:21.436Z,15.49
2022-12-14T00:51:36.450Z,15.51
2022-12-14T00:56:51.392Z,15.52
2022-12-14T01:02:06.528Z,15.57
2022-12-14T01:07:21.410Z,15.58
2022-12-14T01:12:36.516Z,15.61
2022-12-14T01:17:51.398Z,15.63
2022-12-14T01:23:06.478Z,15.61
2022-12-14T01:28:21.433Z,15.61
2022-12-14T01:33:36.463Z,15.62
2022-12-14T01:38:51.421Z,15.63
2022-12-14T01:44:06.470Z,15.66
2022-12-14T01:49:21.461Z,15.68
2022-12-14T01:54:36.677Z,15.70
2022-12-14T01:59:52.908Z,15.69
2022-12-14T02:05:08.448Z,15.70
2022-12-14T02:10:23.492Z,15.69
2022-12-14T02:15:38.427Z,15.68
2022-12-14T02:20:53.648Z,15.71
2022-12-14T02:26:08.391Z,15.70
2022-12-14T02:31:23.493Z,15.72
2022-12-14T02:36:38.475Z,15.72
2022-12-14T02:41:53.818Z,15.72
2022-12-14T02:47:09.446Z,15.72
2022-12-14T02:52:24.505Z,15.75
2022-12-14T02:57:39.463Z,15.78
2022-12-14T03:02:54.537Z,15.78
2022-12-14T03:08:09.788Z,15.79
2022-12-14T03:13:25.876Z,15.79
2022-12-14T03:18:41.742Z,15.77
2022-12-14T03:23:57.482Z,15.80
2022-12-14T03:29:12.471Z,15.80
2022-12-14T03:34:27.417Z,15.83
2022-12-14T03:39:42.452Z,15.85
2022-12-14T03:44:57.473Z,15.85
2022-12-14T03:50:12.417Z,15.88
2022-12-14T03:55:27.511Z,15.90
2022-12-14T04:00:42.523Z,15.92
2022-12-14T04:05:57.481Z,15.92
2022-12-14T04:11:12.410Z,15.94
2022-12-14T04:16:27.426Z,15.95
2022-12-14T04:21:42.501Z,15.96
2022-12-14T04:26:57.425Z,15.96
2022-12-14T04:32:12.840Z,15.94
2022-12-14T04:37:28.841Z,16.01
2022-12-14T04:42:44.798Z,16.03
2022-12-14T04:48:00.508Z,16.02
2022-12-14T04:53:15.452Z,16.00
2022-12-14T04:58:30.513Z,15.98
2022-12-14T05:03:45.851Z,15.95
2022-12-14T05:09:01.445Z,15.95
2022-12-14T05:14:16.451Z,15.92
2022-12-14T05:19:31.762Z,15.91
2022-12-14T05:24:47.541Z,15.89
2022-12-14T05:30:02.731Z,15.84
2022-12-14T05:35:18.462Z,15.79
2022-12-14T05:40:33.432Z,15.75
2022-12-14T05:45:48.453Z,15.69
2022-12-14T05:51:03.799Z,15.63
2022-12-14T05:56:19.528Z,15.60
2022-12-14T06:01:34.522Z,15.55
2022-12-14T06:06:49.440Z,15.50
2022-12-14T06:12:04.505Z,15.45
2022-12-14T06:17:19.462Z,15.36
2022-12-14T06:22:34.460Z,15.37
2022-12-14T06:27:49.508Z,15.35
2022-12-14T06:33:04.784Z,15.32
2022-12-14T06:38:20.659Z,15.28
2022-12-14T06:43:36.842Z,15.25
2022-12-14T06:48:52.491Z,15.19
2022-12-14T06:54:07.427Z,15.16
2022-12-14T06:59:22.732Z,15.12
2022-12-14T07:04:38.433Z,15.08
2022-12-14T07:09:53.493Z,15.04
2022-12-14T07:15:08.554Z,15.02
2022-12-14T07:20:23.474Z,14.97
2022-12-14T07:25:38.429Z,14.95
2022-12-14T07:30:53.539Z,14.91
2022-12-14T07:36:08.439Z,14.88
2022-12-14T07:41:24.445Z,14.86
2022-12-14T07:46:39.568Z,14.84
2022-12-14T07:51:54.437Z,14.82
2022-12-14T07:57:09.774Z,14.82
2022-12-14T08:02:26.537Z,14.84
2022-12-14T08:07:41.546Z,14.86
2022-12-14T08:12:56.724Z,14.87
2022-12-14T08:18:12.440Z,14.86
2022-12-14T08:23:27.870Z,14.86
2022-12-14T08:28:43.794Z,14.84
2022-12-14T08:33:59.531Z,14.84
2022-12-14T08:39:51.835Z,14.83
2022-12-14T08:45:07.461Z,14.83
2022-12-14T08:50:22.537Z,14.80
2022-12-14T08:55:38.621Z,14.77
2022-12-14T09:00:54.314Z,14.77
2022-12-14T09:06:09.488Z,14.74
2022-12-14T09:11:24.799Z,14.70
2022-12-14T09:16:40.599Z,14.67
2022-12-14T09:21:56.558Z,14.66
2022-12-14T09:27:11.445Z,14.64
2022-12-14T09:32:26.465Z,14.62
2022-12-14T09:37:41.517Z,14.60
2022-12-14T09:42:56.448Z,14.60
2022-12-14T09:48:11.496Z,14.59
2022-12-14T09:53:27.048Z,14.59
2022-12-14T09:58:42.245Z,14.59
2022-12-14T10:03:57.663Z,14.58
2022-12-14T10:09:13.782Z,14.57
2022-12-14T10:14:29.863Z,14.56
2022-12-14T10:19:45.824Z,14.56
2022-12-14T10:25:03.474Z,14.53
2022-12-14T10:30:18.541Z,14.53
2022-12-14T10:35:33.901Z,14.52
2022-12-14T10:40:49.667Z,14.51
2022-12-14T10:46:11.856Z,14.51
2022-12-14T10:51:29.603Z,14.49
2022-12-14T10:56:44.503Z,14.48
2022-12-14T11:02:05.883Z,14.47
2022-12-14T11:07:21.865Z,14.47
2022-12-14T11:12:37.454Z,14.46
2022-12-14T11:17:52.564Z,14.45
2022-12-14T11:23:07.507Z,14.44
2022-12-14T11:28:22.431Z,14.43
2022-12-14T11:33:37.520Z,14.42
2022-12-14T11:38:52.469Z,14.41
2022-12-14T11:44:07.470Z,14.41
2022-12-14T11:49:22.288Z,14.39
2022-12-14T11:54:37.309Z,14.39
2022-12-14T11:59:53.556Z,14.37
2022-12-14T12:05:08.216Z,14.38
2022-12-14T12:10:23.505Z,14.38
2022-12-14T12:15:38.303Z,14.37
2022-12-14T12:20:53.565Z,14.38
2022-12-14T12:26:08.462Z,14.38
2022-12-14T12:31:23.875Z,14.38
2022-12-14T12:36:56.850Z,14.38
2022-12-14T12:42:14.527Z,14.38
2022-12-14T12:47:40.109Z,14.37
2022-12-14T12:53:03.222Z,14.37
2022-12-14T12:58:19.484Z,14.37
2022-12-14T13:03:34.495Z,14.38
2022-12-14T13:08:49.681Z,14.38
2022-12-14T13:14:05.447Z,14.37
2022-12-14T13:24:59.280Z,14.37
2022-12-14T13:30:15.828Z,14.38
2022-12-14T13:35:31.543Z,14.39
2022-12-14T13:40:46.520Z,14.38
2022-12-14T13:46:01.545Z,14.36
2022-12-14T13:51:16.477Z,14.37
2022-12-14T13:56:33.473Z,14.37
2022-12-14T14:01:49.491Z,14.37
2022-12-14T14:07:04.549Z,14.38
2022-12-14T14:12:19.483Z,14.35
2022-12-14T14:17:34.845Z,14.35
2022-12-14T14:22:50.862Z,14.36
2022-12-14T14:28:06.515Z,14.35
2022-12-14T14:33:44.735Z,14.35
2022-12-14T14:38:56.936Z,14.35
2022-12-14T14:44:12.503Z,14.33
2022-12-14T14:49:27.499Z,14.33
2022-12-14T14:55:43.627Z,14.34
2022-12-14T15:00:17.504Z,14.49
2022-12-14T15:05:42.056Z,14.48
2022-12-14T15:10:57.505Z,14.46
2022-12-14T15:16:12.799Z,14.44
2022-12-14T15:21:28.466Z,14.43
2022-12-14T15:26:43.538Z,14.43
2022-12-14T15:31:59.830Z,14.42
2022-12-14T15:37:15.790Z,14.41
2022-12-14T15:42:31.512Z,14.41
2022-12-14T15:47:49.043Z,14.39
2022-12-14T15:53:04.496Z,14.36
2022-12-14T15:58:19.506Z,14.39
2022-12-14T16:03:34.494Z,14.40
2022-12-14T16:08:49.481Z,14.39
2022-12-14T16:14:04.276Z,14.40
2022-12-14T16:19:27.351Z,14.41
2022-12-14T16:24:43.515Z,14.42
2022-12-14T16:30:05.487Z,14.43
2022-12-14T16:35:20.527Z,14.42
2022-12-14T16:40:36.549Z,14.41
2022-12-14T16:45:53.858Z,14.41
2022-12-14T16:51:17.381Z,14.41
2022-12-14T16:56:34.036Z,14.43
2022-12-14T17:01:50.051Z,14.43
2022-12-14T17:07:05.537Z,14.42
2022-12-14T17:12:20.525Z,14.40
2022-12-14T17:17:35.543Z,14.42
2022-12-14T17:22:50.468Z,14.44
2022-12-14T17:28:05.788Z,14.44
2022-12-14T17:33:21.478Z,14.45
